createdAt,value
2023-05-19T00:02:26.147Z,100931.63
2023-05-19T00:04:53.202Z,100937.94
2023-05-19T00:07:23.758Z,100934.41
2023-05-19T00:09:50.965Z,100932.72
2023-05-19T00:12:17.811Z,100931.84
2023-05-19T00:14:44.596Z,100928.44
2023-05-19T00:17:11.444Z,100924.91
2023-05-19T00:19:38.207Z,100925.91
2023-05-19T00:22:05.285Z,100933.00
2023-05-19T00:24:32.082Z,100933.06
2023-05-19T00:26:58.639Z,100933.16
2023-05-19T00:29:25.315Z,100936.72
2023-05-19T00:31:51.896Z,100932.44
2023-05-19T00:34:18.491Z,100931.66
2023-05-19T00:36:45.034Z,100931.72
2023-05-19T00:39:11.679Z,100924.78
2023-05-19T00:41:38.277Z,100923.09
2023-05-19T00:44:05.006Z,100921.38
2023-05-19T00:46:31.600Z,100920.50
2023-05-19T00:48:58.213Z,100917.16
2023-05-19T00:54:17.254Z,100920.00
2023-05-19T00:56:43.757Z,100922.00
2023-05-19T00:59:10.417Z,100913.44
2023-05-19T01:01:37.252Z,100910.94
2023-05-19T01:04:04.563Z,100918.09
2023-05-19T01:06:31.157Z,100914.66
2023-05-19T01:08:58.217Z,100919.09
2023-05-19T01:11:24.672Z,100915.59
2023-05-19T01:13:51.521Z,100920.06
2023-05-19T01:16:48.803Z,100914.19
2023-05-19T01:19:25.505Z,100911.78
2023-05-19T01:22:22.812Z,100902.47
2023-05-19T01:25:04.585Z,100908.03
2023-05-19T01:27:49.860Z,100908.38
2023-05-19T01:30:38.149Z,100905.97
2023-05-19T01:33:08.665Z,100901.63
2023-05-19T01:35:37.640Z,100906.25
2023-05-19T01:38:07.853Z,100894.13
2023-05-19T01:40:35.727Z,100905.75
2023-05-19T01:43:02.886Z,100907.72
2023-05-19T01:45:31.871Z,100906.19
2023-05-19T01:48:03.046Z,100908.19
2023-05-19T01:50:30.723Z,100900.44
2023-05-19T01:52:57.603Z,100908.47
2023-05-19T01:55:24.340Z,100906.00
2023-05-19T01:58:22.726Z,100915.84
2023-05-19T02:00:56.625Z,100914.09
2023-05-19T02:03:26.322Z,100913.31
2023-05-19T02:06:01.777Z,100917.06
2023-05-19T02:08:41.457Z,100915.41
2023-05-19T02:11:16.568Z,100929.56
2023-05-19T02:13:44.687Z,100924.41
2023-05-19T02:16:13.491Z,100912.22
2023-05-19T02:18:40.542Z,100927.28
2023-05-19T02:21:07.245Z,100919.53
2023-05-19T02:23:33.742Z,100918.72
2023-05-19T02:26:01.122Z,100915.34
2023-05-19T02:28:28.419Z,100917.13
2023-05-19T02:30:55.125Z,100919.75
2023-05-19T02:33:24.660Z,100909.22
2023-05-19T02:35:51.279Z,100909.22
2023-05-19T02:38:18.192Z,100911.00
2023-05-19T02:40:44.675Z,100903.94
2023-05-19T02:43:11.188Z,100914.47
2023-05-19T02:45:37.710Z,100909.22
2023-05-19T02:48:04.693Z,100903.16
2023-05-19T02:50:31.363Z,100910.16
2023-05-19T02:52:58.123Z,100900.53
2023-05-19T02:55:24.553Z,100891.75
2023-05-19T02:57:51.347Z,100905.81
2023-05-19T03:00:17.938Z,100902.28
2023-05-19T03:02:44.521Z,100900.53
2023-05-19T03:05:11.397Z,100903.09
2023-05-19T03:07:37.880Z,100895.25
2023-05-19T03:10:06.492Z,100896.97
2023-05-19T03:12:33.621Z,100890.91
2023-05-19T03:15:01.057Z,100887.34
2023-05-19T03:17:28.631Z,100880.44
2023-05-19T03:19:55.731Z,100885.75
2023-05-19T03:22:22.299Z,100889.31
2023-05-19T03:24:51.139Z,100885.94
2023-05-19T03:27:17.812Z,100882.63
2023-05-19T03:29:44.273Z,100888.03
2023-05-19T03:32:10.883Z,100887.28
2023-05-19T03:34:37.509Z,100884.78
2023-05-19T03:37:04.153Z,100887.47
2023-05-19T03:39:30.934Z,100886.69
2023-05-19T03:41:57.501Z,100884.09
2023-05-19T03:44:24.181Z,100887.78
2023-05-19T03:46:50.791Z,100890.47
2023-05-19T03:49:18.584Z,100895.00
2023-05-19T03:51:45.038Z,100888.88
2023-05-19T03:54:11.520Z,100891.59
2023-05-19T03:56:40.071Z,100892.53
2023-05-19T03:59:07.275Z,100889.84
2023-05-19T04:01:33.865Z,100895.13
2023-05-19T04:04:00.404Z,100889.00
2023-05-19T04:06:27.026Z,100891.66
2023-05-19T04:08:53.510Z,100891.59
2023-05-19T04:11:20.297Z,100898.56
2023-05-19T04:13:46.861Z,100895.94
2023-05-19T04:16:13.924Z,100901.19
2023-05-19T04:18:40.577Z,100901.19
2023-05-19T04:21:08.716Z,100899.41
2023-05-19T04:23:35.166Z,100902.91
2023-05-19T04:26:02.425Z,100900.28
2023-05-19T04:28:29.939Z,100907.31
2023-05-19T04:30:58.711Z,100905.59
2023-05-19T04:33:25.386Z,100903.84
2023-05-19T04:35:51.938Z,100914.31
2023-05-19T04:38:19.983Z,100904.63
2023-05-19T04:40:46.475Z,100904.56
2023-05-19T04:43:13.066Z,100906.28
2023-05-19T04:45:42.493Z,100904.44
2023-05-19T04:48:09.163Z,100898.16
2023-05-19T04:50:38.537Z,100900.63
2023-05-19T04:53:05.054Z,100899.69
2023-05-19T04:55:32.827Z,100903.09
2023-05-19T04:57:59.291Z,100905.63
2023-05-19T05:00:25.970Z,100911.66
2023-05-19T05:02:52.502Z,100909.84
2023-05-19T05:05:19.037Z,100911.50
2023-05-19T05:07:45.965Z,100903.53
2023-05-19T05:10:12.493Z,100904.25
2023-05-19T05:12:39.234Z,100908.56
2023-05-19T05:15:07.039Z,100908.44
2023-05-19T05:17:35.487Z,100909.97
2023-05-19T05:20:04.697Z,100910.69
2023-05-19T05:22:31.474Z,100908.72
2023-05-19T05:24:58.263Z,100915.56
2023-05-19T05:27:24.818Z,100913.53
2023-05-19T05:29:52.629Z,100914.22
2023-05-19T05:32:19.187Z,100912.16
2023-05-19T05:34:45.932Z,100904.94
2023-05-19T05:37:14.603Z,100915.22
2023-05-19T05:39:41.790Z,100906.19
2023-05-19T05:42:11.318Z,100904.22
2023-05-19T05:44:37.777Z,100904.81
2023-05-19T05:47:04.837Z,100903.69
2023-05-19T05:49:31.677Z,100899.00
2023-05-19T05:52:05.729Z,100900.44
2023-05-19T05:54:33.332Z,100895.75
2023-05-19T05:57:00.074Z,100903.38
2023-05-19T05:59:26.640Z,100904.94
2023-05-19T06:01:53.111Z,100909.91
2023-05-19T06:04:21.037Z,100900.81
2023-05-19T06:06:47.754Z,100904.09
2023-05-19T06:09:14.286Z,100908.16
2023-05-19T06:11:40.993Z,100899.13
2023-05-19T06:14:07.474Z,100905.81
2023-05-19T06:16:34.100Z,100909.00
2023-05-19T06:19:00.635Z,100908.75
2023-05-19T06:21:27.201Z,100904.97
2023-05-19T06:23:54.227Z,100905.53
2023-05-19T06:26:20.932Z,100907.84
2023-05-19T06:28:47.390Z,100902.25
2023-05-19T06:31:13.916Z,100900.09
2023-05-19T06:33:41.960Z,100904.25
2023-05-19T06:36:10.059Z,100896.09
2023-05-19T06:38:36.611Z,100897.59
2023-05-19T06:41:03.092Z,100899.91
2023-05-19T06:43:30.305Z,100897.06
2023-05-19T06:45:57.017Z,100900.31
2023-05-19T06:48:23.568Z,100900.94
2023-05-19T06:50:51.050Z,100905.91
2023-05-19T06:53:19.809Z,100914.50
2023-05-19T06:55:58.139Z,100907.97
2023-05-19T06:58:26.812Z,100905.09
2023-05-19T07:00:53.809Z,100907.41
2023-05-19T07:03:20.691Z,100904.56
2023-05-19T07:05:47.582Z,100905.09
2023-05-19T07:08:14.052Z,100898.53
2023-05-19T07:10:40.541Z,100906.06
2023-05-19T07:13:07.111Z,100906.69
2023-05-19T07:15:33.854Z,100907.28
2023-05-19T07:18:00.600Z,100904.25
2023-05-19T07:20:27.203Z,100903.84
2023-05-19T07:22:53.805Z,100903.34
2023-05-19T07:25:20.652Z,100907.38
2023-05-19T07:27:47.490Z,100894.56
2023-05-19T07:30:14.067Z,100891.41
2023-05-19T07:32:40.815Z,100895.31
2023-05-19T07:35:07.700Z,100893.03
2023-05-19T07:37:34.368Z,100890.81
2023-05-19T07:40:01.025Z,100894.66
2023-05-19T07:42:27.554Z,100897.63
2023-05-19T07:44:54.109Z,100909.34
2023-05-19T07:47:20.793Z,100899.91
2023-05-19T07:49:49.096Z,100895.78
2023-05-19T07:52:18.317Z,100890.69
2023-05-19T07:54:46.131Z,100889.19
2023-05-19T07:57:12.672Z,100899.16
2023-05-19T07:59:39.143Z,100893.28
2023-05-19T08:02:06.406Z,100883.84
2023-05-19T08:04:33.090Z,100886.75
2023-05-19T08:06:59.843Z,100892.31
2023-05-19T08:09:26.643Z,100883.75
2023-05-19T08:11:53.477Z,100886.63
2023-05-19T08:14:22.711Z,100883.38
2023-05-19T08:16:50.122Z,100888.75
2023-05-19T08:19:16.774Z,100886.34
2023-05-19T08:21:45.163Z,100877.69
2023-05-19T08:24:11.899Z,100879.66
2023-05-19T08:26:38.443Z,100874.38
2023-05-19T08:29:05.512Z,100872.91
2023-05-19T08:31:32.578Z,100873.94
2023-05-19T08:33:59.296Z,100872.28
2023-05-19T08:36:25.963Z,100864.41
2023-05-19T08:38:52.525Z,100863.56
2023-05-19T08:41:19.312Z,100859.19
2023-05-19T08:43:45.960Z,100860.19
2023-05-19T08:46:15.051Z,100859.44
2023-05-19T08:48:43.105Z,100860.47
2023-05-19T08:51:33.633Z,100852.91
2023-05-19T08:54:14.599Z,100850.34
2023-05-19T08:56:43.340Z,100846.78
2023-05-19T08:59:10.577Z,100848.81
2023-05-19T09:04:10.182Z,100844.69
2023-05-19T09:06:36.821Z,100833.34
2023-05-19T09:09:04.234Z,100833.63
2023-05-19T09:11:30.906Z,100842.50
2023-05-19T09:13:57.445Z,100832.00
2023-05-19T09:16:25.508Z,100824.16
2023-05-19T09:18:57.558Z,100824.44
2023-05-19T09:21:31.175Z,100827.38
2023-05-19T09:24:06.335Z,100834.72
2023-05-19T09:26:40.654Z,100821.47
2023-05-19T09:29:17.897Z,100832.19
2023-05-19T09:32:00.518Z,100819.78
2023-05-19T09:34:27.736Z,100816.03
2023-05-19T09:36:54.489Z,100816.16
2023-05-19T09:39:22.957Z,100820.78
2023-05-19T09:41:54.287Z,100821.16
2023-05-19T09:44:21.270Z,100814.09
2023-05-19T09:46:52.863Z,100815.19
2023-05-19T09:49:24.655Z,100804.97
2023-05-19T09:51:59.063Z,100805.44
2023-05-19T09:54:28.454Z,100807.50
2023-05-19T09:57:07.865Z,100803.84
2023-05-19T09:59:35.789Z,100804.78
2023-05-19T10:02:02.932Z,100807.06
2023-05-19T10:04:30.998Z,100796.97
2023-05-19T10:07:05.536Z,100803.75
2023-05-19T10:09:34.035Z,100798.03
2023-05-19T10:12:01.042Z,100801.28
2023-05-19T10:14:29.645Z,100797.25
2023-05-19T10:16:58.566Z,100802.09
2023-05-19T10:19:27.279Z,100807.09
2023-05-19T10:21:54.620Z,100798.94
2023-05-19T10:24:21.742Z,100795.41
2023-05-19T10:26:55.212Z,100791.75
2023-05-19T10:29:34.901Z,100800.63
2023-05-19T10:32:08.193Z,100794.75
2023-05-19T10:34:57.147Z,100798.16
2023-05-19T10:37:50.575Z,100790.59
2023-05-19T10:40:25.914Z,100779.66
2023-05-19T10:43:20.321Z,100780.63
2023-05-19T10:45:54.348Z,100766.38
2023-05-19T10:48:22.574Z,100765.94
2023-05-19T10:50:52.919Z,100759.78
2023-05-19T10:53:22.476Z,100753.84
2023-05-19T10:55:56.314Z,100749.75
2023-05-19T10:58:45.381Z,100753.75
2023-05-19T11:01:16.943Z,100757.28
2023-05-19T11:03:54.294Z,100755.31
2023-05-19T11:06:29.601Z,100752.22
2023-05-19T11:09:16.543Z,100750.88
2023-05-19T11:11:48.377Z,100763.13
2023-05-19T11:14:21.492Z,100763.91
2023-05-19T11:16:49.732Z,100754.69
2023-05-19T11:19:28.499Z,100757.41
2023-05-19T11:21:56.451Z,100753.50
2023-05-19T11:24:44.763Z,100751.88
2023-05-19T11:27:38.522Z,100748.44
2023-05-19T11:30:14.810Z,100747.19
2023-05-19T11:32:42.852Z,100746.75
2023-05-19T11:35:10.224Z,100741.22
2023-05-19T11:37:37.178Z,100743.94
2023-05-19T11:40:06.991Z,100742.31
2023-05-19T11:42:34.909Z,100746.72
2023-05-19T11:45:01.830Z,100739.97
2023-05-19T11:47:28.556Z,100745.38
2023-05-19T11:49:56.785Z,100743.66
2023-05-19T11:52:29.483Z,100744.66
2023-05-19T11:54:56.893Z,100734.00
2023-05-19T11:57:23.431Z,100729.50
2023-05-19T11:59:52.285Z,100739.63
2023-05-19T12:02:21.421Z,100737.41
2023-05-19T12:04:49.440Z,100735.03
2023-05-19T12:07:19.975Z,100726.38
2023-05-19T12:09:47.339Z,100726.06
2023-05-19T12:12:19.118Z,100725.91
2023-05-19T12:14:52.827Z,100726.47
2023-05-19T12:17:20.948Z,100727.13
2023-05-19T12:19:48.983Z,100722.72
2023-05-19T12:22:17.228Z,100724.03
2023-05-19T12:24:45.135Z,100725.09
2023-05-19T12:27:23.153Z,100719.00
2023-05-19T12:29:54.156Z,100721.88
2023-05-19T12:32:28.880Z,100719.28
2023-05-19T12:34:58.827Z,100722.47
2023-05-19T12:37:30.158Z,100721.03
2023-05-19T12:39:57.647Z,100717.97
2023-05-19T12:42:31.234Z,100712.56
2023-05-19T12:45:00.881Z,100712.81
2023-05-19T12:47:34.888Z,100705.25
2023-05-19T12:50:05.412Z,100700.59
2023-05-19T12:52:35.513Z,100706.22
2023-05-19T12:55:11.196Z,100706.91
2023-05-19T12:57:39.160Z,100708.25
2023-05-19T13:00:13.854Z,100701.66
2023-05-19T13:03:04.839Z,100706.19
2023-05-19T13:05:33.802Z,100700.59
2023-05-19T13:08:04.931Z,100695.84
2023-05-19T13:10:32.158Z,100683.41
2023-05-19T13:13:00.320Z,100690.53
2023-05-19T13:15:31.686Z,100679.00
2023-05-19T13:17:58.674Z,100683.88
2023-05-19T13:20:27.648Z,100687.19
2023-05-19T13:22:55.967Z,100679.34
2023-05-19T13:25:22.703Z,100676.81
2023-05-19T13:27:49.632Z,100669.09
2023-05-19T13:30:16.418Z,100656.41
2023-05-19T13:32:43.010Z,100670.72
2023-05-19T13:35:10.391Z,100668.91
2023-05-19T13:37:36.945Z,100661.03
2023-05-19T13:40:03.707Z,100664.00
2023-05-19T13:42:31.787Z,100663.72
2023-05-19T13:44:58.341Z,100659.84
2023-05-19T13:47:24.982Z,100664.78
2023-05-19T13:49:51.968Z,100666.47
2023-05-19T13:52:20.618Z,100670.03
2023-05-19T13:54:48.469Z,100663.19
2023-05-19T13:57:15.893Z,100666.31
2023-05-19T13:59:57.762Z,100661.84
2023-05-19T14:02:27.380Z,100663.81
2023-05-19T14:04:54.307Z,100660.06
2023-05-19T14:07:21.156Z,100657.34
2023-05-19T14:09:47.771Z,100663.75
2023-05-19T14:12:14.378Z,100658.56
2023-05-19T14:14:40.943Z,100658.97
2023-05-19T14:17:07.483Z,100657.63
2023-05-19T14:19:34.007Z,100657.44
2023-05-19T14:22:00.466Z,100654.97
2023-05-19T14:24:26.979Z,100661.00
2023-05-19T14:26:53.803Z,100660.00
2023-05-19T14:29:20.307Z,100660.06
2023-05-19T14:31:46.980Z,100661.63
2023-05-19T14:34:17.765Z,100660.09
2023-05-19T14:36:44.652Z,100655.97
2023-05-19T14:39:11.888Z,100654.34
2023-05-19T14:41:38.444Z,100661.75
2023-05-19T14:44:05.558Z,100658.09
2023-05-19T14:46:32.577Z,100657.03
2023-05-19T14:48:59.072Z,100659.31
2023-05-19T14:51:25.746Z,100651.59
2023-05-19T14:53:52.292Z,100658.88
2023-05-19T14:56:18.728Z,100651.59
2023-05-19T14:58:45.206Z,100655.25
2023-05-19T15:01:11.840Z,100649.91
2023-05-19T15:03:38.410Z,100663.63
2023-05-19T15:06:09.336Z,100657.16
2023-05-19T15:08:37.689Z,100650.59
2023-05-19T15:11:04.678Z,100647.56
2023-05-19T15:13:31.309Z,100651.13
2023-05-19T15:16:12.428Z,100641.53
2023-05-19T15:18:41.956Z,100641.38
2023-05-19T15:21:08.484Z,100639.97
2023-05-19T15:23:34.956Z,100635.72
2023-05-19T15:26:01.488Z,100637.53
2023-05-19T15:28:28.017Z,100623.50
2023-05-19T15:30:54.561Z,100625.13
2023-05-19T15:33:21.228Z,100632.38
2023-05-19T15:35:51.522Z,100635.75
2023-05-19T15:38:19.503Z,100637.03
2023-05-19T15:40:46.726Z,100627.97
2023-05-19T15:43:13.560Z,100628.50
2023-05-19T15:45:40.800Z,100626.94
2023-05-19T15:48:07.571Z,100625.97
2023-05-19T15:50:34.404Z,100619.31
2023-05-19T15:53:01.054Z,100615.31
2023-05-19T15:55:27.608Z,100615.16
2023-05-19T15:57:54.177Z,100628.09
2023-05-19T16:00:20.814Z,100635.63
2023-05-19T16:02:47.397Z,100630.81
2023-05-19T16:05:13.962Z,100623.06
2023-05-19T16:07:42.084Z,100631.19
2023-05-19T16:10:09.074Z,100614.06
2023-05-19T16:12:36.715Z,100620.91
2023-05-19T16:15:03.806Z,100621.75
2023-05-19T16:17:30.653Z,100620.41
2023-05-19T16:19:57.259Z,100618.69
2023-05-19T16:22:24.892Z,100610.97
2023-05-19T16:24:52.297Z,100613.84
2023-05-19T16:27:19.176Z,100612.97
2023-05-19T16:29:45.889Z,100615.09
2023-05-19T16:32:12.790Z,100611.91
2023-05-19T16:34:39.542Z,100617.78
2023-05-19T16:37:06.097Z,100609.28
2023-05-19T16:39:32.685Z,100620.13
2023-05-19T16:41:59.197Z,100612.22
2023-05-19T16:44:26.078Z,100607.06
2023-05-19T16:46:52.591Z,100612.53
2023-05-19T16:49:19.124Z,100606.66
2023-05-19T16:51:46.823Z,100609.50
2023-05-19T16:54:14.719Z,100606.13
2023-05-19T16:56:41.263Z,100614.00
2023-05-19T16:59:09.555Z,100614.38
2023-05-19T17:01:36.134Z,100619.47
2023-05-19T17:04:02.764Z,100608.00
2023-05-19T17:06:29.859Z,100608.19
2023-05-19T17:08:56.459Z,100608.00
2023-05-19T17:11:22.929Z,100602.59
2023-05-19T17:13:49.427Z,100601.22
2023-05-19T17:16:16.053Z,100595.38
2023-05-19T17:18:43.668Z,100596.41
2023-05-19T17:21:10.611Z,100596.44
2023-05-19T17:23:37.846Z,100599.19
2023-05-19T17:26:04.557Z,100595.53
2023-05-19T17:28:31.090Z,100605.31
2023-05-19T17:30:57.755Z,100597.13
2023-05-19T17:33:24.425Z,100596.00
2023-05-19T17:35:51.038Z,100604.78
2023-05-19T17:38:17.648Z,100610.69
2023-05-19T17:40:44.421Z,100604.25
2023-05-19T17:43:11.167Z,100603.97
2023-05-19T17:45:37.661Z,100607.50
2023-05-19T17:48:04.836Z,100613.28
2023-05-19T17:50:31.540Z,100610.31
2023-05-19T17:52:58.564Z,100613.53
2023-05-19T17:55:29.736Z,100619.47
2023-05-19T17:57:57.359Z,100617.22
2023-05-19T18:00:25.174Z,100618.59
2023-05-19T18:02:52.254Z,100614.66
2023-05-19T18:05:19.335Z,100622.25
2023-05-19T18:07:46.160Z,100619.13
2023-05-19T18:10:16.187Z,100611.66
2023-05-19T18:12:42.664Z,100610.66
2023-05-19T18:15:09.521Z,100608.78
2023-05-19T18:17:36.111Z,100604.25
2023-05-19T18:20:02.782Z,100607.75
2023-05-19T18:22:29.337Z,100615.59
2023-05-19T18:24:57.636Z,100613.63
2023-05-19T18:27:24.185Z,100620.34
2023-05-19T18:29:50.683Z,100618.31
2023-05-19T18:32:17.745Z,100609.00
2023-05-19T18:34:44.341Z,100622.91
2023-05-19T18:37:10.855Z,100616.25
2023-05-19T18:39:37.509Z,100623.84
2023-05-19T18:42:04.376Z,100634.91
2023-05-19T18:44:31.120Z,100630.22
2023-05-19T18:46:57.711Z,100633.28
2023-05-19T18:49:25.107Z,100637.31
2023-05-19T18:51:52.027Z,100636.00
2023-05-19T18:56:48.090Z,100644.81
2023-05-19T18:59:14.700Z,100636.47
2023-05-19T19:01:41.427Z,100636.00
2023-05-19T19:04:08.309Z,100637.47
2023-05-19T19:06:34.961Z,100648.56
2023-05-19T19:09:01.499Z,100643.69
2023-05-19T19:11:28.092Z,100645.91
2023-05-19T19:13:56.573Z,100646.41
2023-05-19T19:16:23.305Z,100645.94
2023-05-19T19:18:50.119Z,100647.16
2023-05-19T19:21:19.251Z,100652.63
2023-05-19T19:23:45.880Z,100653.97
2023-05-19T19:26:12.402Z,100652.53
2023-05-19T19:28:38.957Z,100659.09
2023-05-19T19:31:05.545Z,100669.19
2023-05-19T19:33:32.156Z,100662.38
2023-05-19T19:35:58.718Z,100663.59
2023-05-19T19:38:25.180Z,100666.75
2023-05-19T19:40:52.485Z,100672.34
2023-05-19T19:43:19.258Z,100670.16
2023-05-19T19:45:45.747Z,100673.19
2023-05-19T19:48:12.499Z,100677.09
2023-05-19T19:50:41.899Z,100679.38
2023-05-19T19:53:08.866Z,100681.69
2023-05-19T19:55:35.555Z,100684.78
2023-05-19T19:58:02.122Z,100685.41
2023-05-19T20:00:28.621Z,100685.13
2023-05-19T20:03:05.061Z,100681.22
2023-05-19T20:05:32.396Z,100686.19
2023-05-19T20:07:59.038Z,100692.00
2023-05-19T20:10:25.554Z,100695.97
2023-05-19T20:12:52.354Z,100690.16
2023-05-19T20:15:18.956Z,100697.66
2023-05-19T20:17:45.770Z,100696.41
2023-05-19T20:20:12.840Z,100696.03
2023-05-19T20:22:39.704Z,100695.63
2023-05-19T20:25:06.613Z,100693.41
2023-05-19T20:27:33.178Z,100698.25
2023-05-19T20:29:59.791Z,100693.38
2023-05-19T20:32:26.401Z,100696.34
2023-05-19T20:34:53.010Z,100701.25
2023-05-19T20:37:20.973Z,100703.41
2023-05-19T20:39:47.818Z,100695.66
2023-05-19T20:42:14.336Z,100702.16
2023-05-19T20:44:41.028Z,100703.34
2023-05-19T20:47:08.243Z,100700.06
2023-05-19T20:49:35.041Z,100699.44
2023-05-19T20:52:01.640Z,100702.41
2023-05-19T20:54:28.240Z,100699.88
2023-05-19T20:56:54.801Z,100698.28
2023-05-19T20:59:21.421Z,100697.56
2023-05-19T21:01:48.064Z,100701.19
2023-05-19T21:04:14.777Z,100698.72
2023-05-19T21:06:41.337Z,100698.84
2023-05-19T21:09:07.974Z,100704.38
2023-05-19T21:11:34.570Z,100705.34
2023-05-19T21:14:03.893Z,100702.88
2023-05-19T21:16:31.205Z,100699.50
2023-05-19T21:18:57.882Z,100704.81
2023-05-19T21:21:24.572Z,100700.56
2023-05-19T21:23:51.086Z,100698.97
2023-05-19T21:26:17.979Z,100709.72
2023-05-19T21:28:44.546Z,100698.31
2023-05-19T21:31:11.316Z,100707.28
2023-05-19T21:33:37.887Z,100706.41
2023-05-19T21:36:04.732Z,100707.38
2023-05-19T21:38:31.371Z,100706.56
2023-05-19T21:40:58.015Z,100701.34
2023-05-19T21:43:24.578Z,100704.94
2023-05-19T21:45:51.102Z,100702.16
2023-05-19T21:48:17.881Z,100711.00
2023-05-19T21:50:44.572Z,100710.16
2023-05-19T21:53:11.086Z,100711.00
2023-05-19T21:55:37.740Z,100715.38
2023-05-19T21:58:04.345Z,100714.53
2023-05-19T22:00:30.916Z,100713.66
2023-05-19T22:02:57.520Z,100714.63
2023-05-19T22:05:24.099Z,100712.91
2023-05-19T22:07:50.668Z,100721.88
2023-05-19T22:10:17.409Z,100712.38
2023-05-19T22:12:43.926Z,100715.91
2023-05-19T22:15:11.421Z,100712.50
2023-05-19T22:17:37.925Z,100716.97
2023-05-19T22:20:05.382Z,100716.00
2023-05-19T22:22:31.852Z,100714.22
2023-05-19T22:24:58.613Z,100719.53
2023-05-19T22:27:25.146Z,100715.06
2023-05-19T22:29:51.624Z,100713.34
2023-05-19T22:32:19.478Z,100713.34
2023-05-19T22:34:46.320Z,100712.63
2023-05-19T22:37:13.036Z,100717.19
2023-05-19T22:39:39.607Z,100712.06
2023-05-19T22:42:06.187Z,100722.94
2023-05-19T22:44:32.690Z,100713.38
2023-05-19T22:46:59.212Z,100718.81
2023-05-19T22:49:27.357Z,100714.53
2023-05-19T22:51:53.918Z,100721.66
2023-05-19T22:54:20.503Z,100729.75
2023-05-19T22:56:49.050Z,100720.94
2023-05-19T22:59:17.933Z,100720.81
2023-05-19T23:01:46.477Z,100708.47
2023-05-19T23:04:13.964Z,100713.69
2023-05-19T23:06:40.783Z,100711.03
2023-05-19T23:09:07.699Z,100708.38
2023-05-19T23:11:35.852Z,100709.22
2023-05-19T23:14:02.577Z,100718.03
2023-05-19T23:16:29.185Z,100716.34
2023-05-19T23:18:55.866Z,100712.81
2023-05-19T23:21:22.474Z,100718.38
2023-05-19T23:23:49.767Z,100718.44
2023-05-19T23:26:16.469Z,100719.50
2023-05-19T23:28:43.284Z,100719.72
2023-05-19T23:31:10.169Z,100718.13
2023-05-19T23:33:36.807Z,100713.88
2023-05-19T23:36:08.284Z,100713.34
2023-05-19T23:38:38.071Z,100718.84
2023-05-19T23:41:05.170Z,100715.66
2023-05-19T23:43:34.799Z,100713.41
2023-05-19T23:46:01.576Z,100716.38
2023-05-19T23:48:29.333Z,100717.66
2023-05-19T23:50:56.919Z,100715.38
2023-05-19T23:53:23.787Z,100714.00
2023-05-19T23:55:51.381Z,100710.69
2023-05-19T23:58:18.153Z,100712.81
